Terminal Aerodrome Forecast
Issued by NWS

Home | Current Version | Previous Version | Text Only | Print | Product List | Glossary On
Versions: 1 2 3 4 5 6 7 8 9 10 11 12 13 14 15 16 17 18 19 20 21 22 23 24 25 26
667
FTUS46 KSGX 231141
TAFSAN
TAF
KSAN 231141Z 2312/2418 22010KT P6SM -SHRA SCT006 BKN020 OVC050
     FM231900 23015G25KT P6SM -SHRA VCTS SCT020 BKN030CB OVC050
      TEMPO 2320/2324 4SM RA BKN015
     FM240000 28011KT P6SM VCSH SCT015 BKN025
     FM241000 31005KT P6SM VCSH SCT010 BKN018=

USA.gov is the U.S. government's official web portal to all federal, state and local government web resources and services.